sensor_id;sensor_type;location;lat;lon;timestamp;P1;durP1;ratioP1;P2;durP2;ratioP2
21297;SDS011;10808;48.010;11.326;2023-01-19T00:01:33;14.57;;;9.73;;
21297;SDS011;10808;48.010;11.326;2023-01-19T00:03:59;14.30;;;9.75;;
21297;SDS011;10808;48.010;11.326;2023-01-19T00:06:25;15.07;;;9.88;;
21297;SDS011;10808;48.010;11.326;2023-01-19T00:08:52;18.55;;;10.52;;
21297;SDS011;10808;48.010;11.326;2023-01-19T00:11:18;18.20;;;10.73;;
21297;SDS011;10808;48.010;11.326;2023-01-19T00:13:44;16.17;;;10.23;;
21297;SDS011;10808;48.010;11.326;2023-01-19T00:16:14;16.00;;;10.30;;
21297;SDS011;10808;48.010;11.326;2023-01-19T00:18:46;15.65;;;10.57;;
21297;SDS011;10808;48.010;11.326;2023-01-19T00:21:12;14.73;;;10.30;;
21297;SDS011;10808;48.010;11.326;2023-01-19T00:23:41;14.45;;;9.93;;
21297;SDS011;10808;48.010;11.326;2023-01-19T00:26:14;17.30;;;10.17;;
21297;SDS011;10808;48.010;11.326;2023-01-19T00:28:41;13.15;;;9.48;;
21297;SDS011;10808;48.010;11.326;2023-01-19T00:31:08;14.07;;;9.63;;
21297;SDS011;10808;48.010;11.326;2023-01-19T00:33:34;17.48;;;10.38;;
21297;SDS011;10808;48.010;11.326;2023-01-19T00:36:02;16.90;;;9.57;;
21297;SDS011;10808;48.010;11.326;2023-01-19T00:38:28;13.88;;;8.77;;
21297;SDS011;10808;48.010;11.326;2023-01-19T00:40:54;15.00;;;9.52;;
21297;SDS011;10808;48.010;11.326;2023-01-19T00:43:20;13.48;;;9.25;;
21297;SDS011;10808;48.010;11.326;2023-01-19T00:45:46;13.70;;;9.53;;
21297;SDS011;10808;48.010;11.326;2023-01-19T00:48:12;14.45;;;9.30;;
21297;SDS011;10808;48.010;11.326;2023-01-19T00:50:38;15.90;;;9.85;;
21297;SDS011;10808;48.010;11.326;2023-01-19T00:53:04;13.00;;;8.57;;
21297;SDS011;10808;48.010;11.326;2023-01-19T00:55:30;13.43;;;8.18;;
21297;SDS011;10808;48.010;11.326;2023-01-19T00:57:57;12.98;;;8.20;;
21297;SDS011;10808;48.010;11.326;2023-01-19T01:00:23;11.48;;;8.27;;
21297;SDS011;10808;48.010;11.326;2023-01-19T01:02:51;12.57;;;8.30;;
21297;SDS011;10808;48.010;11.326;2023-01-19T01:05:18;11.35;;;8.13;;
21297;SDS011;10808;48.010;11.326;2023-01-19T01:07:45;13.02;;;8.65;;
21297;SDS011;10808;48.010;11.326;2023-01-19T01:10:15;12.23;;;8.48;;
21297;SDS011;10808;48.010;11.326;2023-01-19T01:12:43;13.93;;;7.97;;
21297;SDS011;10808;48.010;11.326;2023-01-19T01:15:10;13.23;;;8.43;;
21297;SDS011;10808;48.010;11.326;2023-01-19T01:17:37;11.73;;;8.30;;
21297;SDS011;10808;48.010;11.326;2023-01-19T01:20:18;10.98;;;7.93;;
21297;SDS011;10808;48.010;11.326;2023-01-19T01:22:47;11.05;;;8.07;;
21297;SDS011;10808;48.010;11.326;2023-01-19T01:25:15;12.70;;;8.60;;
21297;SDS011;10808;48.010;11.326;2023-01-19T01:27:43;11.55;;;7.97;;
21297;SDS011;10808;48.010;11.326;2023-01-19T01:30:10;11.77;;;8.05;;
21297;SDS011;10808;48.010;11.326;2023-01-19T01:32:37;12.47;;;8.60;;
21297;SDS011;10808;48.010;11.326;2023-01-19T01:35:03;14.43;;;8.45;;
21297;SDS011;10808;48.010;11.326;2023-01-19T01:37:30;13.27;;;8.48;;
21297;SDS011;10808;48.010;11.326;2023-01-19T01:39:56;12.63;;;8.20;;
21297;SDS011;10808;48.010;11.326;2023-01-19T01:42:27;13.70;;;8.23;;
21297;SDS011;10808;48.010;11.326;2023-01-19T01:44:55;14.20;;;8.38;;
21297;SDS011;10808;48.010;11.326;2023-01-19T01:47:33;14.77;;;8.32;;
21297;SDS011;10808;48.010;11.326;2023-01-19T01:50:09;12.93;;;7.75;;
21297;SDS011;10808;48.010;11.326;2023-01-19T01:52:42;9.90;;;7.30;;
21297;SDS011;10808;48.010;11.326;2023-01-19T01:55:19;13.73;;;8.18;;
21297;SDS011;10808;48.010;11.326;2023-01-19T01:57:51;12.80;;;8.00;;
21297;SDS011;10808;48.010;11.326;2023-01-19T02:00:22;10.85;;;8.05;;
21297;SDS011;10808;48.010;11.326;2023-01-19T02:02:49;13.20;;;7.97;;
21297;SDS011;10808;48.010;11.326;2023-01-19T02:05:20;12.77;;;8.02;;
21297;SDS011;10808;48.010;11.326;2023-01-19T02:08:02;11.83;;;7.87;;
21297;SDS011;10808;48.010;11.326;2023-01-19T02:10:50;12.07;;;8.05;;
21297;SDS011;10808;48.010;11.326;2023-01-19T02:13:36;12.10;;;7.50;;
21297;SDS011;10808;48.010;11.326;2023-01-19T02:16:07;12.25;;;8.38;;
21297;SDS011;10808;48.010;11.326;2023-01-19T02:18:34;10.48;;;7.80;;
21297;SDS011;10808;48.010;11.326;2023-01-19T02:21:18;12.87;;;8.63;;
21297;SDS011;10808;48.010;11.326;2023-01-19T02:23:47;13.68;;;7.97;;
21297;SDS011;10808;48.010;11.326;2023-01-19T02:26:17;13.82;;;7.90;;
21297;SDS011;10808;48.010;11.326;2023-01-19T02:28:54;13.67;;;8.57;;
21297;SDS011;10808;48.010;11.326;2023-01-19T02:31:25;14.25;;;8.77;;
21297;SDS011;10808;48.010;11.326;2023-01-19T02:33:53;10.90;;;7.50;;
21297;SDS011;10808;48.010;11.326;2023-01-19T02:36:21;13.38;;;8.57;;
21297;SDS011;10808;48.010;11.326;2023-01-19T02:38:55;12.38;;;7.80;;
21297;SDS011;10808;48.010;11.326;2023-01-19T02:41:25;9.40;;;7.50;;
21297;SDS011;10808;48.010;11.326;2023-01-19T02:43:55;14.75;;;8.70;;
21297;SDS011;10808;48.010;11.326;2023-01-19T02:46:23;12.32;;;7.80;;
21297;SDS011;10808;48.010;11.326;2023-01-19T02:48:50;11.60;;;8.50;;
21297;SDS011;10808;48.010;11.326;2023-01-19T02:51:17;12.70;;;8.55;;
21297;SDS011;10808;48.010;11.326;2023-01-19T02:53:51;12.63;;;8.68;;
21297;SDS011;10808;48.010;11.326;2023-01-19T03:08:00;12.80;;;8.38;;
21297;SDS011;10808;48.010;11.326;2023-01-19T03:13:15;13.38;;;9.45;;
21297;SDS011;10808;48.010;11.326;2023-01-19T03:15:55;13.98;;;9.68;;
21297;SDS011;10808;48.010;11.326;2023-01-19T03:18:29;14.32;;;9.20;;
21297;SDS011;10808;48.010;11.326;2023-01-19T03:20:59;16.48;;;9.57;;
21297;SDS011;10808;48.010;11.326;2023-01-19T03:23:29;16.23;;;9.70;;
21297;SDS011;10808;48.010;11.326;2023-01-19T03:25:57;13.43;;;8.80;;
21297;SDS011;10808;48.010;11.326;2023-01-19T03:28:25;13.85;;;9.20;;
21297;SDS011;10808;48.010;11.326;2023-01-19T03:30:57;13.80;;;9.45;;
21297;SDS011;10808;48.010;11.326;2023-01-19T03:33:28;11.73;;;8.73;;
21297;SDS011;10808;48.010;11.326;2023-01-19T03:35:59;14.18;;;9.18;;
21297;SDS011;10808;48.010;11.326;2023-01-19T03:38:31;15.45;;;9.45;;
21297;SDS011;10808;48.010;11.326;2023-01-19T03:41:01;17.07;;;9.87;;
21297;SDS011;10808;48.010;11.326;2023-01-19T03:43:29;14.50;;;9.88;;
21297;SDS011;10808;48.010;11.326;2023-01-19T03:45:57;14.85;;;10.20;;
21297;SDS011;10808;48.010;11.326;2023-01-19T03:48:23;16.27;;;9.87;;
21297;SDS011;10808;48.010;11.326;2023-01-19T03:50:50;15.85;;;10.60;;
21297;SDS011;10808;48.010;11.326;2023-01-19T03:53:16;13.93;;;9.93;;
21297;SDS011;10808;48.010;11.326;2023-01-19T03:55:45;16.67;;;9.70;;
21297;SDS011;10808;48.010;11.326;2023-01-19T03:58:12;15.35;;;10.60;;
21297;SDS011;10808;48.010;11.326;2023-01-19T04:00:38;15.70;;;10.90;;
21297;SDS011;10808;48.010;11.326;2023-01-19T04:03:05;14.05;;;10.43;;
21297;SDS011;10808;48.010;11.326;2023-01-19T04:05:38;16.42;;;10.45;;
21297;SDS011;10808;48.010;11.326;2023-01-19T04:08:04;16.13;;;11.23;;
21297;SDS011;10808;48.010;11.326;2023-01-19T04:10:30;15.07;;;10.47;;
21297;SDS011;10808;48.010;11.326;2023-01-19T04:12:57;17.17;;;11.07;;
21297;SDS011;10808;48.010;11.326;2023-01-19T04:15:24;15.55;;;10.90;;
21297;SDS011;10808;48.010;11.326;2023-01-19T04:17:50;15.13;;;10.65;;
21297;SDS011;10808;48.010;11.326;2023-01-19T04:20:16;16.55;;;11.65;;
21297;SDS011;10808;48.010;11.326;2023-01-19T04:22:42;15.57;;;10.77;;
21297;SDS011;10808;48.010;11.326;2023-01-19T04:25:08;16.15;;;11.05;;
21297;SDS011;10808;48.010;11.326;2023-01-19T04:27:35;16.73;;;11.45;;
21297;SDS011;10808;48.010;11.326;2023-01-19T04:30:01;15.20;;;11.15;;
21297;SDS011;10808;48.010;11.326;2023-01-19T04:32:28;18.20;;;11.20;;
21297;SDS011;10808;48.010;11.326;2023-01-19T04:34:55;14.93;;;10.80;;
21297;SDS011;10808;48.010;11.326;2023-01-19T04:37:21;19.80;;;11.88;;
21297;SDS011;10808;48.010;11.326;2023-01-19T04:39:47;17.58;;;12.05;;
21297;SDS011;10808;48.010;11.326;2023-01-19T04:42:13;18.23;;;11.85;;
21297;SDS011;10808;48.010;11.326;2023-01-19T04:44:39;15.30;;;11.77;;
21297;SDS011;10808;48.010;11.326;2023-01-19T04:47:05;16.67;;;11.77;;
21297;SDS011;10808;48.010;11.326;2023-01-19T04:49:31;17.95;;;12.77;;
21297;SDS011;10808;48.010;11.326;2023-01-19T04:51:57;16.85;;;12.25;;
21297;SDS011;10808;48.010;11.326;2023-01-19T04:54:23;19.40;;;12.65;;
21297;SDS011;10808;48.010;11.326;2023-01-19T04:56:50;17.97;;;12.87;;
21297;SDS011;10808;48.010;11.326;2023-01-19T04:59:16;16.92;;;12.65;;
21297;SDS011;10808;48.010;11.326;2023-01-19T05:01:42;20.60;;;13.38;;
21297;SDS011;10808;48.010;11.326;2023-01-19T05:04:08;19.33;;;13.32;;
21297;SDS011;10808;48.010;11.326;2023-01-19T05:06:34;21.05;;;14.20;;
21297;SDS011;10808;48.010;11.326;2023-01-19T05:09:00;18.98;;;13.52;;
21297;SDS011;10808;48.010;11.326;2023-01-19T05:11:26;22.83;;;14.63;;
21297;SDS011;10808;48.010;11.326;2023-01-19T05:13:52;24.83;;;14.32;;
21297;SDS011;10808;48.010;11.326;2023-01-19T05:16:18;22.98;;;15.30;;
21297;SDS011;10808;48.010;11.326;2023-01-19T05:18:44;19.83;;;13.70;;
21297;SDS011;10808;48.010;11.326;2023-01-19T05:21:10;20.10;;;13.90;;
21297;SDS011;10808;48.010;11.326;2023-01-19T05:23:36;20.42;;;14.63;;
21297;SDS011;10808;48.010;11.326;2023-01-19T05:26:02;20.10;;;13.55;;
21297;SDS011;10808;48.010;11.326;2023-01-19T05:28:28;19.75;;;14.32;;
21297;SDS011;10808;48.010;11.326;2023-01-19T05:30:56;18.60;;;13.52;;
21297;SDS011;10808;48.010;11.326;2023-01-19T05:33:22;20.65;;;13.43;;
21297;SDS011;10808;48.010;11.326;2023-01-19T05:35:48;17.35;;;12.45;;
21297;SDS011;10808;48.010;11.326;2023-01-19T05:38:15;18.23;;;12.27;;
21297;SDS011;10808;48.010;11.326;2023-01-19T05:40:41;16.98;;;12.10;;
21297;SDS011;10808;48.010;11.326;2023-01-19T05:43:07;18.00;;;12.32;;
21297;SDS011;10808;48.010;11.326;2023-01-19T05:45:33;19.48;;;12.90;;
21297;SDS011;10808;48.010;11.326;2023-01-19T05:47:59;16.07;;;12.10;;
21297;SDS011;10808;48.010;11.326;2023-01-19T05:50:26;17.08;;;12.18;;
21297;SDS011;10808;48.010;11.326;2023-01-19T05:52:52;17.70;;;12.10;;
21297;SDS011;10808;48.010;11.326;2023-01-19T05:55:18;17.60;;;11.73;;
21297;SDS011;10808;48.010;11.326;2023-01-19T05:57:44;17.58;;;11.65;;
21297;SDS011;10808;48.010;11.326;2023-01-19T06:00:11;17.85;;;12.57;;
21297;SDS011;10808;48.010;11.326;2023-01-19T06:02:37;18.38;;;12.82;;
21297;SDS011;10808;48.010;11.326;2023-01-19T06:05:04;19.88;;;12.95;;
21297;SDS011;10808;48.010;11.326;2023-01-19T06:07:30;23.30;;;16.15;;
21297;SDS011;10808;48.010;11.326;2023-01-19T06:09:56;23.55;;;15.90;;
21297;SDS011;10808;48.010;11.326;2023-01-19T06:12:23;17.40;;;13.02;;
21297;SDS011;10808;48.010;11.326;2023-01-19T06:14:49;16.60;;;12.05;;
21297;SDS011;10808;48.010;11.326;2023-01-19T06:17:15;16.95;;;11.90;;
21297;SDS011;10808;48.010;11.326;2023-01-19T06:19:41;18.48;;;13.43;;
21297;SDS011;10808;48.010;11.326;2023-01-19T06:22:07;21.45;;;15.57;;
21297;SDS011;10808;48.010;11.326;2023-01-19T06:24:34;20.00;;;13.85;;
21297;SDS011;10808;48.010;11.326;2023-01-19T06:27:00;24.67;;;17.27;;
21297;SDS011;10808;48.010;11.326;2023-01-19T06:29:26;18.50;;;13.70;;
21297;SDS011;10808;48.010;11.326;2023-01-19T06:31:52;18.30;;;13.52;;
21297;SDS011;10808;48.010;11.326;2023-01-19T06:34:19;19.75;;;13.75;;
21297;SDS011;10808;48.010;11.326;2023-01-19T06:36:45;28.10;;;19.13;;
21297;SDS011;10808;48.010;11.326;2023-01-19T06:39:11;26.42;;;17.05;;
21297;SDS011;10808;48.010;11.326;2023-01-19T06:41:37;23.50;;;14.00;;
21297;SDS011;10808;48.010;11.326;2023-01-19T06:44:04;21.97;;;14.40;;
21297;SDS011;10808;48.010;11.326;2023-01-19T06:46:30;20.73;;;14.03;;
21297;SDS011;10808;48.010;11.326;2023-01-19T06:48:56;19.50;;;13.90;;
21297;SDS011;10808;48.010;11.326;2023-01-19T06:51:23;19.53;;;13.40;;
21297;SDS011;10808;48.010;11.326;2023-01-19T06:53:49;17.58;;;12.65;;
21297;SDS011;10808;48.010;11.326;2023-01-19T06:56:15;19.48;;;12.88;;
21297;SDS011;10808;48.010;11.326;2023-01-19T06:58:41;17.33;;;12.70;;
21297;SDS011;10808;48.010;11.326;2023-01-19T07:01:08;18.38;;;12.32;;
21297;SDS011;10808;48.010;11.326;2023-01-19T07:03:34;17.23;;;11.90;;
21297;SDS011;10808;48.010;11.326;2023-01-19T07:06:02;19.10;;;12.80;;
21297;SDS011;10808;48.010;11.326;2023-01-19T07:08:31;19.75;;;12.20;;
21297;SDS011;10808;48.010;11.326;2023-01-19T07:11:05;19.63;;;12.52;;
21297;SDS011;10808;48.010;11.326;2023-01-19T07:13:32;19.50;;;13.70;;
21297;SDS011;10808;48.010;11.326;2023-01-19T07:16:09;21.38;;;15.15;;
21297;SDS011;10808;48.010;11.326;2023-01-19T07:18:36;19.70;;;14.25;;
21297;SDS011;10808;48.010;11.326;2023-01-19T07:21:03;19.08;;;12.38;;
21297;SDS011;10808;48.010;11.326;2023-01-19T07:23:30;18.05;;;12.73;;
21297;SDS011;10808;48.010;11.326;2023-01-19T07:25:57;20.05;;;12.43;;
21297;SDS011;10808;48.010;11.326;2023-01-19T07:28:25;17.75;;;12.93;;
21297;SDS011;10808;48.010;11.326;2023-01-19T07:30:52;22.45;;;13.55;;
21297;SDS011;10808;48.010;11.326;2023-01-19T07:33:19;19.30;;;13.30;;
21297;SDS011;10808;48.010;11.326;2023-01-19T07:35:49;18.75;;;12.93;;
21297;SDS011;10808;48.010;11.326;2023-01-19T07:38:16;17.83;;;12.60;;
21297;SDS011;10808;48.010;11.326;2023-01-19T07:40:43;23.60;;;14.60;;
21297;SDS011;10808;48.010;11.326;2023-01-19T07:43:13;23.83;;;14.30;;
21297;SDS011;10808;48.010;11.326;2023-01-19T07:45:40;19.60;;;12.30;;
21297;SDS011;10808;48.010;11.326;2023-01-19T07:48:06;17.85;;;12.02;;
21297;SDS011;10808;48.010;11.326;2023-01-19T07:50:32;16.60;;;11.95;;
21297;SDS011;10808;48.010;11.326;2023-01-19T07:53:03;18.83;;;12.68;;
21297;SDS011;10808;48.010;11.326;2023-01-19T07:55:31;17.05;;;11.63;;
21297;SDS011;10808;48.010;11.326;2023-01-19T07:57:57;18.35;;;11.52;;
21297;SDS011;10808;48.010;11.326;2023-01-19T08:00:25;17.20;;;12.10;;
21297;SDS011;10808;48.010;11.326;2023-01-19T08:02:51;18.80;;;12.00;;
21297;SDS011;10808;48.010;11.326;2023-01-19T08:05:25;15.85;;;11.25;;
21297;SDS011;10808;48.010;11.326;2023-01-19T08:07:53;19.08;;;11.82;;
21297;SDS011;10808;48.010;11.326;2023-01-19T08:10:22;17.23;;;11.25;;
21297;SDS011;10808;48.010;11.326;2023-01-19T08:12:52;18.60;;;11.30;;
21297;SDS011;10808;48.010;11.326;2023-01-19T08:15:19;19.05;;;10.98;;
21297;SDS011;10808;48.010;11.326;2023-01-19T08:17:55;17.58;;;11.30;;
21297;SDS011;10808;48.010;11.326;2023-01-19T08:20:25;16.90;;;11.63;;
21297;SDS011;10808;48.010;11.326;2023-01-19T08:22:52;17.10;;;11.52;;
21297;SDS011;10808;48.010;11.326;2023-01-19T08:25:26;17.88;;;11.85;;
21297;SDS011;10808;48.010;11.326;2023-01-19T08:27:59;20.17;;;12.00;;
21297;SDS011;10808;48.010;11.326;2023-01-19T08:30:26;17.92;;;11.85;;
21297;SDS011;10808;48.010;11.326;2023-01-19T08:32:55;18.23;;;11.48;;
21297;SDS011;10808;48.010;11.326;2023-01-19T08:35:29;17.65;;;11.55;;
21297;SDS011;10808;48.010;11.326;2023-01-19T08:37:56;16.85;;;11.60;;
21297;SDS011;10808;48.010;11.326;2023-01-19T08:40:29;19.40;;;13.23;;
21297;SDS011;10808;48.010;11.326;2023-01-19T08:42:58;17.52;;;11.20;;
21297;SDS011;10808;48.010;11.326;2023-01-19T08:45:28;18.70;;;11.80;;
21297;SDS011;10808;48.010;11.326;2023-01-19T08:47:55;16.60;;;11.80;;
21297;SDS011;10808;48.010;11.326;2023-01-19T08:50:26;17.58;;;11.82;;
21297;SDS011;10808;48.010;11.326;2023-01-19T08:52:54;16.90;;;11.43;;
21297;SDS011;10808;48.010;11.326;2023-01-19T08:55:24;15.87;;;10.90;;
21297;SDS011;10808;48.010;11.326;2023-01-19T08:57:51;16.27;;;10.70;;
21297;SDS011;10808;48.010;11.326;2023-01-19T09:00:18;14.70;;;10.32;;
21297;SDS011;10808;48.010;11.326;2023-01-19T09:02:45;16.98;;;11.05;;
21297;SDS011;10808;48.010;11.326;2023-01-19T09:05:12;15.35;;;10.30;;
21297;SDS011;10808;48.010;11.326;2023-01-19T09:07:38;15.70;;;10.57;;
21297;SDS011;10808;48.010;11.326;2023-01-19T09:10:04;16.83;;;10.98;;
21297;SDS011;10808;48.010;11.326;2023-01-19T09:12:31;14.02;;;10.00;;
21297;SDS011;10808;48.010;11.326;2023-01-19T09:14:57;20.70;;;12.15;;
21297;SDS011;10808;48.010;11.326;2023-01-19T09:17:23;16.40;;;11.20;;
21297;SDS011;10808;48.010;11.326;2023-01-19T09:19:50;16.13;;;11.10;;
21297;SDS011;10808;48.010;11.326;2023-01-19T09:22:16;14.70;;;10.25;;
21297;SDS011;10808;48.010;11.326;2023-01-19T09:24:42;16.75;;;10.07;;
21297;SDS011;10808;48.010;11.326;2023-01-19T09:27:08;14.60;;;10.33;;
21297;SDS011;10808;48.010;11.326;2023-01-19T09:29:34;15.18;;;9.95;;
21297;SDS011;10808;48.010;11.326;2023-01-19T09:32:01;13.30;;;9.50;;
21297;SDS011;10808;48.010;11.326;2023-01-19T09:34:27;15.48;;;9.52;;
21297;SDS011;10808;48.010;11.326;2023-01-19T09:36:53;11.80;;;8.60;;
21297;SDS011;10808;48.010;11.326;2023-01-19T09:39:19;13.43;;;8.73;;
21297;SDS011;10808;48.010;11.326;2023-01-19T09:41:46;13.55;;;9.18;;
21297;SDS011;10808;48.010;11.326;2023-01-19T09:44:17;14.10;;;9.07;;
21297;SDS011;10808;48.010;11.326;2023-01-19T09:46:46;14.38;;;9.68;;
21297;SDS011;10808;48.010;11.326;2023-01-19T09:49:13;11.85;;;9.00;;
21297;SDS011;10808;48.010;11.326;2023-01-19T09:51:43;13.25;;;9.13;;
21297;SDS011;10808;48.010;11.326;2023-01-19T09:54:12;13.13;;;9.18;;
21297;SDS011;10808;48.010;11.326;2023-01-19T09:56:45;13.75;;;9.15;;
21297;SDS011;10808;48.010;11.326;2023-01-19T09:59:25;14.60;;;9.27;;
21297;SDS011;10808;48.010;11.326;2023-01-19T10:02:05;12.75;;;8.60;;
21297;SDS011;10808;48.010;11.326;2023-01-19T10:04:38;13.60;;;8.80;;
21297;SDS011;10808;48.010;11.326;2023-01-19T10:07:28;13.45;;;8.90;;
21297;SDS011;10808;48.010;11.326;2023-01-19T10:18:43;10.95;;;8.02;;
21297;SDS011;10808;48.010;11.326;2023-01-19T10:21:22;11.13;;;7.97;;
21297;SDS011;10808;48.010;11.326;2023-01-19T10:29:01;11.35;;;8.05;;
21297;SDS011;10808;48.010;11.326;2023-01-19T10:31:30;11.10;;;7.75;;
21297;SDS011;10808;48.010;11.326;2023-01-19T10:33:58;11.02;;;7.60;;
21297;SDS011;10808;48.010;11.326;2023-01-19T10:36:26;10.98;;;7.20;;
21297;SDS011;10808;48.010;11.326;2023-01-19T10:38:58;10.50;;;7.35;;
21297;SDS011;10808;48.010;11.326;2023-01-19T10:41:25;11.32;;;7.85;;
21297;SDS011;10808;48.010;11.326;2023-01-19T10:44:04;9.70;;;6.95;;
21297;SDS011;10808;48.010;11.326;2023-01-19T10:46:33;12.20;;;7.70;;
21297;SDS011;10808;48.010;11.326;2023-01-19T10:49:21;12.43;;;7.85;;
21297;SDS011;10808;48.010;11.326;2023-01-19T10:52:02;10.27;;;7.72;;
21297;SDS011;10808;48.010;11.326;2023-01-19T10:54:31;16.85;;;8.70;;
21297;SDS011;10808;48.010;11.326;2023-01-19T10:57:02;19.95;;;10.20;;
21297;SDS011;10808;48.010;11.326;2023-01-19T10:59:35;12.35;;;8.80;;
21297;SDS011;10808;48.010;11.326;2023-01-19T11:02:16;11.45;;;7.80;;
21297;SDS011;10808;48.010;11.326;2023-01-19T11:04:47;12.23;;;7.45;;
21297;SDS011;10808;48.010;11.326;2023-01-19T11:07:24;10.40;;;7.85;;
21297;SDS011;10808;48.010;11.326;2023-01-19T11:12:54;10.88;;;7.60;;
21297;SDS011;10808;48.010;11.326;2023-01-19T11:15:51;14.13;;;8.32;;
21297;SDS011;10808;48.010;11.326;2023-01-19T11:18:28;16.88;;;9.30;;
21297;SDS011;10808;48.010;11.326;2023-01-19T11:21:02;14.02;;;8.10;;
21297;SDS011;10808;48.010;11.326;2023-01-19T11:23:36;12.80;;;8.52;;
21297;SDS011;10808;48.010;11.326;2023-01-19T11:26:11;11.45;;;7.47;;
21297;SDS011;10808;48.010;11.326;2023-01-19T11:28:45;11.02;;;7.57;;
21297;SDS011;10808;48.010;11.326;2023-01-19T11:33:40;9.68;;;7.22;;
21297;SDS011;10808;48.010;11.326;2023-01-19T11:36:17;11.23;;;7.55;;
21297;SDS011;10808;48.010;11.326;2023-01-19T11:38:46;12.15;;;7.30;;
21297;SDS011;10808;48.010;11.326;2023-01-19T11:41:22;10.27;;;7.30;;
21297;SDS011;10808;48.010;11.326;2023-01-19T11:43:51;10.73;;;6.60;;
21297;SDS011;10808;48.010;11.326;2023-01-19T11:46:19;11.23;;;7.20;;
21297;SDS011;10808;48.010;11.326;2023-01-19T11:51:38;9.90;;;6.40;;
21297;SDS011;10808;48.010;11.326;2023-01-19T11:54:16;10.57;;;7.57;;
21297;SDS011;10808;48.010;11.326;2023-01-19T11:56:46;10.65;;;7.20;;
21297;SDS011;10808;48.010;11.326;2023-01-19T11:59:13;10.80;;;6.10;;
21297;SDS011;10808;48.010;11.326;2023-01-19T12:01:42;8.60;;;6.20;;
21297;SDS011;10808;48.010;11.326;2023-01-19T12:04:16;10.23;;;6.60;;
21297;SDS011;10808;48.010;11.326;2023-01-19T12:06:50;9.73;;;6.75;;
21297;SDS011;10808;48.010;11.326;2023-01-19T12:10:05;10.85;;;6.75;;
21297;SDS011;10808;48.010;11.326;2023-01-19T12:12:09;9.63;;;6.40;;
21297;SDS011;10808;48.010;11.326;2023-01-19T12:17:33;8.70;;;6.33;;
21297;SDS011;10808;48.010;11.326;2023-01-19T12:28:27;10.25;;;6.45;;
21297;SDS011;10808;48.010;11.326;2023-01-19T12:31:00;9.35;;;7.00;;
21297;SDS011;10808;48.010;11.326;2023-01-19T12:41:22;8.35;;;6.50;;
21297;SDS011;10808;48.010;11.326;2023-01-19T12:46:39;8.57;;;6.17;;
21297;SDS011;10808;48.010;11.326;2023-01-19T12:49:23;10.00;;;6.40;;
21297;SDS011;10808;48.010;11.326;2023-01-19T12:57:40;9.63;;;6.07;;
21297;SDS011;10808;48.010;11.326;2023-01-19T13:00:48;8.82;;;6.20;;
21297;SDS011;10808;48.010;11.326;2023-01-19T13:15:56;5.20;;;3.50;;
21297;SDS011;10808;48.010;11.326;2023-01-19T13:18:50;5.05;;;3.47;;
21297;SDS011;10808;48.010;11.326;2023-01-19T13:21:30;7.33;;;5.13;;
21297;SDS011;10808;48.010;11.326;2023-01-19T13:24:01;4.00;;;3.20;;
21297;SDS011;10808;48.010;11.326;2023-01-19T13:26:29;3.83;;;2.88;;
21297;SDS011;10808;48.010;11.326;2023-01-19T13:29:05;3.80;;;2.90;;
21297;SDS011;10808;48.010;11.326;2023-01-19T13:31:38;6.32;;;3.10;;
21297;SDS011;10808;48.010;11.326;2023-01-19T13:34:17;4.38;;;3.47;;
21297;SDS011;10808;48.010;11.326;2023-01-19T13:36:46;5.30;;;3.50;;
21297;SDS011;10808;48.010;11.326;2023-01-19T13:39:19;5.28;;;3.75;;
21297;SDS011;10808;48.010;11.326;2023-01-19T13:41:46;5.27;;;3.20;;
21297;SDS011;10808;48.010;11.326;2023-01-19T13:44:27;5.43;;;3.45;;
21297;SDS011;10808;48.010;11.326;2023-01-19T13:46:57;4.55;;;2.97;;
21297;SDS011;10808;48.010;11.326;2023-01-19T13:49:28;4.38;;;3.40;;
21297;SDS011;10808;48.010;11.326;2023-01-19T13:52:05;5.00;;;3.03;;
21297;SDS011;10808;48.010;11.326;2023-01-19T14:00:45;4.88;;;2.63;;
21297;SDS011;10808;48.010;11.326;2023-01-19T14:03:00;4.90;;;2.80;;
21297;SDS011;10808;48.010;11.326;2023-01-19T14:05:38;4.07;;;2.80;;
21297;SDS011;10808;48.010;11.326;2023-01-19T14:10:39;8.45;;;4.22;;
21297;SDS011;10808;48.010;11.326;2023-01-19T14:13:20;10.73;;;5.53;;
21297;SDS011;10808;48.010;11.326;2023-01-19T14:15:47;7.63;;;4.63;;
21297;SDS011;10808;48.010;11.326;2023-01-19T14:20:54;5.15;;;3.78;;
21297;SDS011;10808;48.010;11.326;2023-01-19T14:23:42;6.35;;;3.83;;
21297;SDS011;10808;48.010;11.326;2023-01-19T14:39:49;7.05;;;4.50;;
21297;SDS011;10808;48.010;11.326;2023-01-19T14:42:21;8.07;;;4.70;;
21297;SDS011;10808;48.010;11.326;2023-01-19T14:44:51;7.60;;;4.70;;
21297;SDS011;10808;48.010;11.326;2023-01-19T14:47:26;8.57;;;4.95;;
21297;SDS011;10808;48.010;11.326;2023-01-19T14:50:01;7.38;;;4.97;;
21297;SDS011;10808;48.010;11.326;2023-01-19T14:52:33;7.40;;;5.07;;
21297;SDS011;10808;48.010;11.326;2023-01-19T14:55:14;9.43;;;4.82;;
21297;SDS011;10808;48.010;11.326;2023-01-19T14:57:45;7.13;;;4.85;;
21297;SDS011;10808;48.010;11.326;2023-01-19T15:00:12;6.88;;;4.60;;
21297;SDS011;10808;48.010;11.326;2023-01-19T15:02:42;6.88;;;4.40;;
21297;SDS011;10808;48.010;11.326;2023-01-19T15:05:08;5.75;;;3.90;;
21297;SDS011;10808;48.010;11.326;2023-01-19T15:07:35;5.32;;;3.92;;
21297;SDS011;10808;48.010;11.326;2023-01-19T15:10:03;6.95;;;4.10;;
21297;SDS011;10808;48.010;11.326;2023-01-19T15:12:35;6.47;;;4.22;;
21297;SDS011;10808;48.010;11.326;2023-01-19T15:15:01;6.28;;;4.40;;
21297;SDS011;10808;48.010;11.326;2023-01-19T15:17:27;6.22;;;3.92;;
21297;SDS011;10808;48.010;11.326;2023-01-19T15:19:53;7.35;;;4.38;;
21297;SDS011;10808;48.010;11.326;2023-01-19T15:22:20;7.60;;;4.40;;
21297;SDS011;10808;48.010;11.326;2023-01-19T15:24:49;7.60;;;4.70;;
21297;SDS011;10808;48.010;11.326;2023-01-19T15:27:15;7.22;;;4.78;;
21297;SDS011;10808;48.010;11.326;2023-01-19T15:29:41;7.30;;;4.63;;
21297;SDS011;10808;48.010;11.326;2023-01-19T15:32:11;8.18;;;5.00;;
21297;SDS011;10808;48.010;11.326;2023-01-19T15:34:38;7.60;;;4.80;;
21297;SDS011;10808;48.010;11.326;2023-01-19T15:37:04;7.78;;;5.68;;
21297;SDS011;10808;48.010;11.326;2023-01-19T15:39:30;7.47;;;5.23;;
21297;SDS011;10808;48.010;11.326;2023-01-19T15:41:56;9.82;;;5.13;;
21297;SDS011;10808;48.010;11.326;2023-01-19T15:44:22;8.50;;;5.47;;
21297;SDS011;10808;48.010;11.326;2023-01-19T15:46:48;7.90;;;5.65;;
21297;SDS011;10808;48.010;11.326;2023-01-19T15:49:14;9.07;;;6.20;;
21297;SDS011;10808;48.010;11.326;2023-01-19T15:51:40;8.95;;;6.25;;
21297;SDS011;10808;48.010;11.326;2023-01-19T15:54:11;7.35;;;5.50;;
21297;SDS011;10808;48.010;11.326;2023-01-19T15:56:55;15.23;;;9.23;;
21297;SDS011;10808;48.010;11.326;2023-01-19T15:59:20;12.43;;;7.78;;
21297;SDS011;10808;48.010;11.326;2023-01-19T16:01:48;7.88;;;5.97;;
21297;SDS011;10808;48.010;11.326;2023-01-19T16:04:15;12.23;;;7.73;;
21297;SDS011;10808;48.010;11.326;2023-01-19T16:06:41;12.07;;;7.85;;
21297;SDS011;10808;48.010;11.326;2023-01-19T16:09:07;11.38;;;7.18;;
21297;SDS011;10808;48.010;11.326;2023-01-19T16:11:33;8.57;;;6.03;;
21297;SDS011;10808;48.010;11.326;2023-01-19T16:14:00;9.00;;;5.93;;